FOOL Airport Information

Runway Information
Runway 16 Length 9844 ft width 148 ft
Elevation 29 ft Threshold 0 ft Heading 154
Runway 34 Length 9844 ft Width 148 ft
Elevation 28 ft Threshold 0 ft Heading 334
Airport Frequencies
Type A/G Name A/G VOICE Frequency 655.9 MHZ
Type RDO Name LIBREVILLE Frequency 666.6 MHZ
Type TWR Name TWR Frequency 118.7 MHZ
Airport Navaids
Type VOR-DME Name Libreville Frequency 112100 KHZ
Airport Weather Information & NOTAM
ADDS - METARS form results

(0610 UTC 15 September 2019)
Data provider http://aviationweather.gov/metar/data/
 
METAR text: FOOL 150600Z 17006KT 150V230 8000 SCT009 26/24 Q1013 NOSIG
Conditions at: FOOL (LIBREVILLE/LEON , GA) observed 0600 UTC 15 September 2019
Temperature: 26.0°C (79°F)
Dewpoint: 24.0°C (75°F) [RH = 89%]
Pressure (altimeter): 29.91 inches Hg (1013.0 mb)
Winds: from the S (170 degrees) at 7 MPH (6 knots; 3.1 m/s)
Visibility: 5 miles ( 8 km)
Ceiling: at least 12,000 feet AGL
Clouds: scattered clouds at 900 feet AGL
Weather: no significant weather observed at this time

METAR text: FOOL 150530Z 19006KT 170V230 8000 SCT009 26/23 Q1012 NOSIG
Conditions at: FOOL (LIBREVILLE/LEON , GA) observed 0530 UTC 15 September 2019
Temperature: 26.0°C (79°F)
Dewpoint: 23.0°C (73°F) [RH = 84%]
Pressure (altimeter): 29.88 inches Hg (1012.0 mb)
Winds: from the S (190 degrees) at 7 MPH (6 knots; 3.1 m/s)
Visibility: 5 miles ( 8 km)
Ceiling: at least 12,000 feet AGL
Clouds: scattered clouds at 900 feet AGL
Weather: no significant weather observed at this time

Forecast for: FOOL (LIBREVILLE/LEON , GA)
Text: TAF FOOL 150500Z 1506/1612 20008KT 9999 SCT010 BKN030
Forecast period: 0600 UTC 15 September 2019 to 1200 UTC 16 September 2019
Forecast type: FROM: standard forecast or significant change
Winds: from the SSW (200 degrees) at 9 MPH (8 knots; 4.1 m/s)
Visibility: 6 or more miles 10+ km)
Ceiling: 3000 feet AGL
Clouds: scattered clouds at 1000 feet AGL
broken clouds at 3000 feet AGL
Weather: no significant weather forecast for this period
Text: TEMPO 1506/1509 4000 RADZ BKN008 OVC026
Forecast period: 0600 to 0900 UTC 15 September 2019
Forecast type: TEMPORARY: The following changes expected for less than half the time period
Visibility: 2.49 miles (4.01 km)
Ceiling: 800 feet AGL
Clouds: broken clouds at 800 feet AGL
overcast cloud deck at 2600 feet AGL
Weather: RA DZ  (moderate rain, moderate drizzle)